Cleland, United Kingdom
Current Conditions -  °F | °C
As of 2:50 AM on Saturday 20 Dec 2014 (Local Time) from EGPF Reporting Station
Light Rain Light Rain  
Wind Chill: 34°   Ceiling: Unl
Heat Index: 43°   Visibility: 6mi
Dew Point: 37°   Wind: 21mph
Humidity: 81%   Direction: 270°W
Pressure: 29.85"   Gusts: NA
Location:  55.8°N, 3.91°W
Report Text: EGPF 200250Z AUTO 27018KT 9999 -RA FEW014/// SCT031/// //////CB 06/03 Q1011
Loading
Personal Weather Stations






























Interactive Weather Map New forecast layout! Learn more

10-Day Weather Forecast

Advertisements
Track Severe Weather on mobile